Time;durP1;ratioP1;P1;durP2;ratioP2;P2;SDS_P1;SDS_P2;PMS_P1;PMS_P2;Temp;Humidity;BMP_temperature;BMP_pressure;BME280_temperature;BME280_humidity;BME280_pressure;Samples;Min_cycle;Max_cycle;Signal;HPM_P1;HPM_P2
2023/10/09 00:03:06;;;;;;;8.02;2.35;;;;;;;;;;5038649;28;20033;-84
2023/10/09 00:08:30;;;;;;;8.63;2.22;;;;;;;;;;5040302;28;20036;-84
2023/10/09 00:10:57;;;;;;;7.53;2.42;;;;;;;;;;5037959;28;20020;-84
2023/10/09 00:13:30;;;;;;;7.25;2.53;;;;;;;;;;5038242;28;20022;-83
2023/10/09 00:16:01;;;;;;;5.00;2.30;;;;;;;;;;5035221;28;20048;-83
2023/10/09 00:18:33;;;;;;;4.43;2.47;;;;;;;;;;5036262;28;20070;-84
2023/10/09 00:21:12;;;;;;;5.68;1.67;;;;;;;;;;5034634;28;21013;-84
2023/10/09 00:23:41;;;;;;;9.88;2.10;;;11.50;99.90;;;;;;5037701;28;20037;-83
2023/10/09 00:26:12;;;;;;;8.00;2.17;;;;;;;;;;5040836;28;20497;-84
2023/10/09 00:28:44;;;;;;;6.65;2.03;;;;;;;;;;5040631;28;20115;-84
2023/10/09 00:31:15;;;;;;;7.68;2.63;;;;;;;;;;5038044;28;20402;-84
2023/10/09 00:33:44;;;;;;;7.47;2.45;;;;;;;;;;5041375;28;20546;-84
2023/10/09 00:36:10;;;;;;;9.40;1.95;;;;;;;;;;5040089;28;20017;-84
2023/10/09 00:38:51;;;;;;;8.05;3.08;;;11.10;99.90;;;;;;5037974;28;20025;-84
2023/10/09 00:41:22;;;;;;;10.25;2.83;;;;;;;;;;5041590;28;20029;-84
2023/10/09 00:43:59;;;;;;;8.73;2.25;;;;;;;;;;5040095;28;20037;-84
2023/10/09 00:46:25;;;;;;;9.93;2.47;;;;;;;;;;5037399;28;20031;-84
2023/10/09 00:49:01;;;;;;;6.22;2.67;;;11.20;99.90;;;;;;5039440;28;20026;-84
2023/10/09 00:51:34;;;;;;;7.43;2.63;;;;;;;;;;5037921;28;20017;-84
2023/10/09 00:54:07;;;;;;;5.70;2.50;;;;;;;;;;5041681;28;20588;-84
2023/10/09 00:56:43;;;;;;;5.88;2.55;;;;;;;;;;5041075;28;20021;-84
2023/10/09 00:59:13;;;;;;;5.35;2.22;;;;;;;;;;5029161;28;20064;-84
2023/10/09 01:01:50;;;;;;;8.90;3.00;;;;;;;;;;5041665;28;20087;-85
2023/10/09 01:04:17;;;;;;;9.60;3.53;;;;;;;;;;5035553;28;20055;-84
2023/10/09 01:06:47;;;;;;;11.05;2.70;;;;;;;;;;5040201;28;20037;-84
2023/10/09 01:09:14;;;;;;;8.70;2.25;;;;;;;;;;5031645;28;20426;-84
2023/10/09 01:12:03;;;;;;;5.57;2.33;;;11.20;99.90;;;;;;5035582;28;20098;-84
2023/10/09 01:14:31;;;;;;;4.75;2.45;;;;;;;;;;5035818;28;20021;-84
2023/10/09 01:16:57;;;;;;;9.57;2.28;;;;;;;;;;5042031;28;20025;-84
2023/10/09 01:19:23;;;;;;;12.55;2.72;;;;;;;;;;5042253;28;20037;-84
2023/10/09 01:22:02;;;;;;;6.15;2.63;;;11.10;99.90;;;;;;5037647;28;20041;-84
2023/10/09 01:24:31;;;;;;;6.68;2.90;;;;;;;;;;5040855;28;20032;-85
2023/10/09 01:26:59;;;;;;;6.30;2.70;;;;;;;;;;5037696;28;20444;-84
2023/10/09 01:29:29;;;;;;;9.75;2.40;;;;;;;;;;5035145;28;20017;-84
2023/10/09 01:31:56;;;;;;;9.82;2.88;;;;;;;;;;5037893;28;20028;-83
2023/10/09 01:34:38;;;;;;;11.93;2.60;;;11.30;99.90;;;;;;5042078;28;20071;-83
2023/10/09 01:37:18;;;;;;;5.80;2.57;;;11.40;99.90;;;;;;5041431;28;20029;-85
2023/10/09 01:39:48;;;;;;;8.05;3.03;;;12.10;99.90;;;;;;5037210;28;20033;-83
2023/10/09 01:42:24;;;;;;;11.65;2.72;;;;;;;;;;5042413;28;20103;-85
2023/10/09 01:44:50;;;;;;;7.32;2.50;;;;;;;;;;5021186;28;20060;-84
2023/10/09 01:47:18;;;;;;;8.63;2.40;;;;;;;;;;5068442;28;20073;-84
2023/10/09 01:49:48;;;;;;;5.95;2.47;;;;;;;;;;5052432;28;20497;-84
2023/10/09 01:52:18;;;;;;;9.40;3.00;;;;;;;;;;5035742;28;20208;-84
2023/10/09 01:54:49;;;;;;;7.47;2.13;;;;;;;;;;5037213;28;20040;-84
2023/10/09 01:57:15;;;;;;;7.53;2.63;;;;;;;;;;5037026;28;20025;-85
2023/10/09 01:59:47;;;;;;;4.88;2.20;;;;;;;;;;5033938;28;20680;-85
2023/10/09 02:02:25;;;;;;;4.75;2.17;;;;;;;;;;5039130;28;20021;-84
2023/10/09 02:05:04;;;;;;;4.32;2.33;;;11.30;99.90;;;;;;5040541;28;20045;-84
2023/10/09 02:07:40;;;;;;;5.05;2.85;;;;;;;;;;5037561;28;20029;-84
2023/10/09 02:10:11;;;;;;;10.80;2.70;;;;;;;;;;5040303;28;20021;-85
2023/10/09 02:12:37;;;;;;;6.63;2.25;;;;;;;;;;5037191;28;20028;-84
2023/10/09 02:15:15;;;;;;;5.53;2.25;;;;;;;;;;5028790;28;20033;-84
2023/10/09 02:17:52;;;;;;;6.93;2.63;;;;;;;;;;5041568;28;20017;-83
2023/10/09 02:20:28;;;;;;;7.68;2.55;;;;;;;;;;5041422;28;20026;-85
2023/10/09 02:22:54;;;;;;;5.38;2.55;;;;;;;;;;5036808;28;20021;-85
2023/10/09 02:25:21;;;;;;;8.55;2.17;;;;;;;;;;5039664;28;20037;-84
2023/10/09 02:27:53;;;;;;;6.78;2.95;;;;;;;;;;5035226;28;20030;-84
2023/10/09 02:30:26;;;;;;;6.63;2.42;;;;;;;;;;5033189;28;20053;-84
2023/10/09 02:32:55;;;;;;;5.50;2.35;;;;;;;;;;5036777;28;20026;-84
2023/10/09 02:38:17;;;;;;;7.20;2.35;;;;;;;;;;5042647;28;20036;-84
2023/10/09 02:43:34;;;;;;;7.20;3.05;;;;;;;;;;5035771;28;20036;-84
2023/10/09 02:46:14;;;;;;;5.65;2.45;;;;;;;;;;5041155;28;20078;-84
2023/10/09 02:48:45;;;;;;;7.13;2.60;;;;;;;;;;5031949;28;20745;-84
2023/10/09 02:51:21;;;;;;;7.25;3.22;;;;;;;;;;5036926;28;20477;-84
2023/10/09 02:53:49;;;;;;;7.35;2.78;;;;;;;;;;5032437;28;20148;-84
2023/10/09 02:56:17;;;;;;;10.15;2.95;;;;;;;;;;5040086;28;20051;-84
2023/10/09 02:58:43;;;;;;;6.13;2.65;;;;;;;;;;5038751;28;20036;-84
2023/10/09 03:01:15;;;;;;;7.10;2.58;;;11.20;99.90;;;;;;5037387;28;20044;-84
2023/10/09 03:03:48;;;;;;;8.05;2.97;;;11.10;99.90;;;;;;5031660;28;20724;-84
2023/10/09 03:06:24;;;;;;;5.22;2.22;;;;;;;;;;5036299;28;20439;-86
2023/10/09 03:08:50;;;;;;;8.90;3.10;;;;;;;;;;5037720;28;20035;-85
2023/10/09 03:11:17;;;;;;;5.65;2.63;;;;;;;;;;5039146;28;20491;-84
2023/10/09 03:13:44;;;;;;;5.85;2.50;;;;;;;;;;5035938;28;20112;-84
2023/10/09 03:16:19;;;;;;;5.85;2.97;;;;;;;;;;5037508;28;20071;-84
2023/10/09 03:18:46;;;;;;;11.55;2.95;;;;;;;;;;5037523;28;20087;-84
2023/10/09 03:21:14;;;;;;;3.20;1.98;;;;;;;;;;5042874;28;20056;-84
2023/10/09 03:23:40;;;;;;;10.45;2.47;;;;;;;;;;5035610;28;20024;-84
2023/10/09 03:26:07;;;;;;;5.82;2.20;;;;;;;;;;5034242;28;20025;-84
2023/10/09 03:28:35;;;;;;;4.63;2.42;;;;;;;;;;5041607;28;20094;-85
2023/10/09 03:31:02;;;;;;;5.78;2.45;;;;;;;;;;5036053;28;20083;-84
2023/10/09 03:33:33;;;;;;;6.30;2.35;;;;;;;;;;5032666;28;20034;-84
2023/10/09 03:36:00;;;;;;;8.77;3.58;;;;;;;;;;5032341;28;20112;-83
2023/10/09 03:38:29;;;;;;;4.78;2.67;;;;;;;;;;5035852;28;20025;-83
2023/10/09 03:40:55;;;;;;;8.88;2.28;;;;;;;;;;5036921;28;20603;-85
2023/10/09 03:43:21;;;;;;;8.82;2.85;;;;;;;;;;5041459;28;20040;-85
2023/10/09 03:45:54;;;;;;;5.82;2.45;;;;;;;;;;5046884;28;20048;-84
2023/10/09 03:48:31;;;;;;;11.35;2.45;;;11.10;99.90;;;;;;5043623;28;20079;-84
2023/10/09 03:51:12;;;;;;;7.32;2.55;;;;;;;;;;5043181;28;20021;-84
2023/10/09 03:53:42;;;;;;;6.70;2.88;;;11.00;99.90;;;;;;5038086;28;20036;-84
2023/10/09 03:56:12;;;;;;;9.57;2.90;;;;;;;;;;5041381;28;20052;-84
2023/10/09 03:58:39;;;;;;;8.50;2.40;;;10.90;99.90;;;;;;5038391;28;20539;-84
2023/10/09 04:01:10;;;;;;;6.55;2.63;;;;;;;;;;5038941;28;20033;-84
2023/10/09 04:03:38;;;;;;;9.73;2.70;;;;;;;;;;5043993;28;20017;-84
2023/10/09 04:06:08;;;;;;;6.88;2.72;;;;;;;;;;5041987;28;20033;-83
2023/10/09 04:08:35;;;;;;;7.90;2.63;;;;;;;;;;5045912;28;20029;-83
2023/10/09 04:11:02;;;;;;;9.52;2.67;;;;;;;;;;5043736;28;20095;-83
2023/10/09 04:13:34;;;;;;;10.88;2.97;;;;;;;;;;5039717;28;20100;-84
2023/10/09 04:16:26;;;;;;;6.13;2.58;;;;;;;;;;5032606;28;20022;-83
2023/10/09 04:18:52;;;;;;;6.53;2.45;;;;;;;;;;5042837;28;20025;-83
2023/10/09 04:21:18;;;;;;;8.70;2.55;;;;;;;;;;5032333;28;20082;-84
2023/10/09 04:24:09;;;;;;;6.20;3.03;;;;;;;;;;5035842;28;20065;-85
2023/10/09 04:26:35;;;;;;;8.48;2.75;;;10.80;99.90;;;;;;5044931;28;20025;-83
2023/10/09 04:29:02;;;;;;;7.43;2.40;;;;;;;;;;5062642;28;20144;-83
2023/10/09 04:31:32;;;;;;;12.23;2.88;;;;;;;;;;5047566;28;20036;-85
2023/10/09 04:36:46;;;;;;;9.77;2.50;;;;;;;;;;5041056;28;20083;-84
2023/10/09 04:44:22;;;;;;;5.22;2.67;;;;;;;;;;5037679;28;20048;-84
2023/10/09 04:47:18;;;;;;;5.68;2.38;;;;;;;;;;5038333;28;20053;-84
2023/10/09 05:00:35;;;;;;;7.90;2.00;;;;;;;;;;5039676;28;20048;-85
2023/10/09 05:03:04;;;;;;;3.55;1.58;;;;;;;;;;5034557;28;20137;-84
2023/10/09 05:11:15;;;;;;;3.05;1.45;;;10.60;99.90;;;;;;5039074;28;20036;-84
2023/10/09 05:16:28;;;;;;;7.78;2.30;;;;;;;;;;5037082;28;20040;-85
2023/10/09 05:18:59;;;;;;;13.48;2.95;;;;;;;;;;5037764;28;20401;-85
2023/10/09 05:32:02;;;;;;;6.97;2.60;;;;;;;;;;5027108;28;20552;-84
2023/10/09 05:34:33;;;;;;;9.80;3.17;;;10.50;99.90;;;;;;5038364;28;20067;-85
2023/10/09 05:37:24;;;;;;;6.53;2.92;;;;;;;;;;5041832;28;20032;-84
2023/10/09 06:03:25;;;;;;;4.07;1.85;;;;;;;;;;5044128;28;20048;-84
2023/10/09 06:08:26;;;;;;;5.88;1.85;;;;;;;;;;5037901;28;20359;-84
2023/10/09 06:13:37;;;;;;;6.30;1.75;;;;;;;;;;5047988;28;20116;-85
2023/10/09 06:16:19;;;;;;;3.90;1.80;;;10.90;99.90;;;;;;5040404;28;20120;-84
2023/10/09 06:19:07;;;;;;;6.60;1.63;;;11.00;99.90;;;;;;5043667;28;20031;-84
2023/10/09 06:24:18;;;;;;;5.28;2.28;;;;;;;;;;5031792;28;20052;-84
2023/10/09 06:35:21;;;;;;;7.47;2.42;;;;;;;;;;5041999;28;20032;-84
2023/10/09 06:43:17;;;;;;;5.15;2.40;;;;;;;;;;5045511;28;20440;-84
2023/10/09 06:45:54;;;;;;;6.97;2.92;;;;;;;;;;5040182;28;20511;-84
2023/10/09 06:58:55;;;;;;;8.65;2.83;;;;;;;;;;5045961;28;20036;-84
2023/10/09 07:03:54;;;;;;;7.28;2.75;;;;;;;;;;5057562;28;20392;-84
2023/10/09 07:06:23;;;;;;;7.05;2.92;;;11.50;99.90;;;;;;5041256;28;20029;-84
2023/10/09 07:14:32;;;;;;;11.15;3.20;;;;;;;;;;5046236;28;20087;-84
2023/10/09 07:17:21;;;;;;;9.18;2.80;;;;;;;;;;5041812;28;20448;-84
2023/10/09 07:24:49;;;;;;;6.30;2.70;;;;;;;;;;5044188;28;20044;-84
2023/10/09 07:27:43;;;;;;;8.10;3.13;;;;;;;;;;5045957;28;20056;-84
2023/10/09 07:30:35;;;;;;;19.15;4.07;;;;;;;;;;5045884;28;20627;-84
2023/10/09 07:38:23;;;;;;;8.93;2.97;;;12.20;99.90;;;;;;5042858;28;20079;-84
2023/10/09 07:40:56;;;;;;;9.23;2.83;;;;;;;;;;5043130;28;20017;-84
2023/10/09 07:43:28;;;;;;;7.32;3.28;;;13.20;99.90;;;;;;5042547;28;20029;-84
2023/10/09 07:48:27;;;;;;;7.50;2.75;;;;;;;;;;5045793;28;20028;-84
2023/10/09 07:50:59;;;;;;;5.38;2.30;;;;;;;;;;5049027;28;20028;-85
2023/10/09 07:53:28;;;;;;;9.70;2.85;;;;;;;;;;5042885;28;20108;-84
2023/10/09 07:56:06;;;;;;;6.60;2.40;;;;;;;;;;5046709;28;20037;-84
2023/10/09 07:58:33;;;;;;;6.75;1.92;;;14.00;99.90;;;;;;5044056;28;20029;-85
2023/10/09 08:01:06;;;;;;;7.43;2.90;;;;;;;;;;5044971;28;20108;-85
2023/10/09 08:03:33;;;;;;;13.93;3.80;;;;;;;;;;5050766;28;20025;-84
2023/10/09 08:06:45;;;;;;;8.57;2.60;;;;;;;;;;5044455;28;20033;-84
2023/10/09 08:11:59;;;;;;;5.80;3.00;;;;;;;;;;5041359;28;20481;-85
2023/10/09 08:17:14;;;;;;;15.48;2.92;;;;;;;;;;5044267;28;20036;-84
2023/10/09 08:19:57;;;;;;;15.77;3.22;;;14.00;99.90;;;;;;5046177;28;20406;-84
2023/10/09 08:24:55;;;;;;;10.77;2.53;;;;;;;;;;5046162;28;20563;-85
2023/10/09 08:32:43;;;;;;;6.70;2.90;;;;;;;;;;5045968;28;20080;-85
2023/10/09 08:35:29;;;;;;;4.55;2.63;;;;;;;;;;5044385;28;20053;-85
2023/10/09 08:37:58;;;;;;;6.63;2.20;;;;;;;;;;5045530;28;20393;-85
2023/10/09 08:40:33;;;;;;;9.90;2.70;;;14.70;99.90;;;;;;5042903;28;20025;-85
2023/10/09 08:43:02;;;;;;;7.28;2.25;;;;;;;;;;5042603;28;20112;-85
2023/10/09 08:45:28;;;;;;;8.43;2.63;;;;;;;;;;5042641;28;20025;-85
2023/10/09 08:47:54;;;;;;;8.00;2.17;;;;;;;;;;5040720;28;20043;-85
2023/10/09 08:50:21;;;;;;;11.82;2.80;;;;;;;;;;5042119;28;20037;-85
2023/10/09 08:52:51;;;;;;;4.82;1.83;;;;;;;;;;5039665;28;20029;-85
2023/10/09 08:55:18;;;;;;;13.18;2.20;;;;;;;;;;5042114;28;20033;-86
2023/10/09 08:57:46;;;;;;;5.05;2.38;;;;;;;;;;5049373;28;20378;-85
2023/10/09 09:00:23;;;;;;;9.43;2.53;;;;;;;;;;5042088;28;20044;-85
2023/10/09 09:02:55;;;;;;;12.90;2.20;;;;;;;;;;5039277;28;20405;-85
2023/10/09 09:05:22;;;;;;;7.85;1.92;;;;;;;;;;5033140;28;20029;-85
2023/10/09 09:07:48;;;;;;;7.65;2.08;;;;;;;;;;5041372;28;20034;-85
2023/10/09 09:10:17;;;;;;;10.98;2.58;;;;;;;;;;5045000;28;20394;-86
2023/10/09 09:12:46;;;;;;;13.15;3.08;;;;;;;;;;5038749;28;20092;-86
2023/10/09 09:15:20;;;;;;;22.35;2.45;;;16.30;99.90;;;;;;5044988;28;20086;-86
2023/10/09 09:17:46;;;;;;;7.63;2.17;;;;;;;;;;5041530;28;20032;-85
2023/10/09 09:20:23;;;;;;;16.40;2.95;;;;;;;;;;5045446;28;20052;-86
2023/10/09 09:22:56;;;;;;;9.48;2.08;;;;;;;;;;5036786;28;20123;-86
2023/10/09 09:25:24;;;;;;;;;;;16.80;99.90;;;;;;5043857;28;20040;-85
2023/10/09 09:28:09;;;;;;;9.88;2.25;;;;;;;;;;5045995;28;19908;-86
2023/10/09 09:30:35;;;;;;;11.05;2.45;;;;;;;;;;5046407;28;20025;-86
2023/10/09 09:33:30;;;;;;;17.25;2.22;;;;;;;;;;5046082;28;20025;-85
2023/10/09 09:35:59;;;;;;;11.07;3.20;;;;;;;;;;5069359;28;20040;-86
2023/10/09 09:38:28;;;;;;;12.13;5.00;;;;;;;;;;5037765;28;20029;-86
2023/10/09 09:41:02;;;;;;;12.52;4.65;;;;;;;;;;5043292;28;20033;-86
2023/10/09 09:43:31;;;;;;;12.68;3.20;;;;;;;;;;5040139;28;20028;-86
2023/10/09 09:45:57;;;;;;;11.25;2.58;;;;;;;;;;5044955;28;20412;-86
2023/10/09 09:48:23;;;;;;;6.45;2.15;;;;;;;;;;5041054;28;20032;-86
2023/10/09 09:50:54;;;;;;;11.10;2.03;;;;;;;;;;5038078;28;20025;-86
2023/10/09 09:53:23;;;;;;;19.17;3.38;;;;;;;;;;5040887;28;20021;-86
2023/10/09 09:55:58;;;;;;;11.27;2.85;;;;;;;;;;5046886;28;20486;-87
2023/10/09 09:58:27;;;;;;;19.35;3.25;;;;;;;;;;5043647;28;20022;-86
2023/10/09 10:00:55;;;;;;;9.85;2.03;;;;;;;;;;5042801;28;20036;-86
2023/10/09 10:03:24;;;;;;;6.00;2.10;;;;;;;;;;5029876;28;20033;-86
2023/10/09 10:05:51;;;;;;;6.25;1.70;;;18.90;99.90;;;;;;5041201;28;20025;-87
2023/10/09 10:08:19;;;;;;;7.28;1.15;;;;;;;;;;5042252;28;20025;-86
2023/10/09 10:10:53;;;;;;;13.77;2.63;;;;;;;;;;5027587;28;20132;-87
2023/10/09 10:13:39;;;;;;;9.10;1.85;;;;;;;;;;5044679;28;20044;-87
2023/10/09 10:16:13;;;;;;;8.60;2.97;;;19.10;99.90;;;;;;5041951;28;20075;-87
2023/10/09 10:18:59;;;;;;;10.32;1.98;;;;;;;;;;5043106;28;20029;-87
2023/10/09 10:24:09;;;;;;;4.18;2.10;;;;;;;;;;5043694;28;20401;-86
2023/10/09 10:26:36;;;;;;;5.72;1.88;;;;;;;;;;5037241;28;20477;-87
2023/10/09 10:29:22;;;;;;;6.07;1.98;;;18.50;99.90;;;;;;5042754;28;20025;-86
2023/10/09 10:31:57;;;;;;;8.90;2.17;;;;;;;;;;5045675;28;20063;-87
2023/10/09 10:34:24;;;;;;;10.63;2.35;;;;;;;;;;5036532;28;20067;-86
2023/10/09 10:36:58;;;;;;;9.77;2.15;;;;;;;;;;5037702;28;20390;-86
2023/10/09 10:39:42;;;;;;;13.13;1.85;;;;;;;;;;5047821;28;20107;-86
2023/10/09 10:44:53;;;;;;;10.30;1.65;;;;;;;;;;5028920;28;20114;-86
2023/10/09 10:47:32;;;;;;;6.30;1.45;;;;;;;;;;5037233;28;20060;-87
2023/10/09 10:49:58;;;;;;;7.28;1.83;;;;;;;;;;5032067;28;20030;-87
2023/10/09 10:52:58;;;;;;;8.70;2.00;;;17.80;99.90;;;;;;5037526;28;20133;-86
2023/10/09 10:55:39;;;;;;;7.93;2.45;;;;;;;;;;5043471;28;20456;-86
2023/10/09 10:58:13;;;;;;;7.30;1.98;;;;;;;;;;5039071;28;20421;-86
2023/10/09 11:03:35;;;;;;;6.65;2.05;;;18.00;99.90;;;;;;5045672;28;20098;-85
2023/10/09 11:06:13;;;;;;;6.78;1.95;;;;;;;;;;5051160;28;20030;-86
2023/10/09 11:08:55;;;;;;;8.27;2.47;;;;;;;;;;5043920;28;20486;-86
2023/10/09 11:11:21;;;;;;;9.77;1.92;;;;;;;;;;5043773;28;20116;-87
2023/10/09 11:13:58;;;;;;;8.05;1.55;;;;;;;;;;5040924;28;20032;-89
2023/10/09 11:16:47;;;;;;;6.70;1.98;;;19.00;99.90;;;;;;5037091;28;20109;-87
2023/10/09 11:19:28;;;;;;;4.75;2.03;;;;;;;;;;5048509;28;20024;-86
2023/10/09 11:21:58;;;;;;;5.75;1.42;;;;;;;;;;5030240;28;20126;-87
2023/10/09 11:24:34;;;;;;;11.27;1.85;;;18.50;99.90;;;;;;5029911;28;20056;-87
2023/10/09 11:27:05;;;;;;;8.93;1.80;;;;;;;;;;5044416;28;20025;-88
2023/10/09 11:29:52;;;;;;;8.40;2.53;;;;;;;;;;5036912;28;20231;-87
2023/10/09 11:32:18;;;;;;;14.88;3.78;;;;;;;;;;5043184;28;20032;-87
2023/10/09 11:34:54;;;;;;;7.95;2.05;;;;;;;;;;5036425;28;20386;-87
2023/10/09 11:40:00;;;;;;;4.95;1.70;;;19.50;99.90;;;;;;5044333;28;20119;-87
2023/10/09 11:42:35;;;;;;;5.75;2.28;;;18.60;99.90;;;;;;5045391;28;20032;-87
2023/10/09 11:45:11;;;;;;;9.05;1.98;;;;;;;;;;5035561;28;20044;-87
2023/10/09 11:47:54;;;;;;;22.55;2.78;;;;;;;;;;5042407;28;20103;-87
2023/10/09 11:50:22;;;;;;;8.23;1.23;;;;;;;;;;5044898;28;20174;-88
2023/10/09 11:55:40;;;;;;;10.60;1.83;;;;;;;;;;5044166;28;20401;-87
2023/10/09 11:58:07;;;;;;;6.82;1.45;;;;;;;;;;5037366;28;20036;-87
2023/10/09 12:00:44;;;;;;;12.88;1.70;;;;;;;;;;5037935;28;20623;-88
2023/10/09 12:03:10;;;;;;;9.50;2.63;;;;;;;;;;5039365;28;20043;-88
2023/10/09 12:05:37;;;;;;;8.80;1.95;;;;;;;;;;5047178;28;20104;-87
2023/10/09 12:08:08;;;;;;;8.25;1.67;;;;;;;;;;5034850;28;20033;-88
2023/10/09 12:10:34;;;;;;;5.72;1.58;;;;;;;;;;5042247;28;20033;-87
2023/10/09 12:13:04;;;;;;;7.07;1.85;;;;;;;;;;5033473;28;20425;-87
2023/10/09 12:15:37;;;;;;;10.75;1.48;;;;;;;;;;5070349;28;20033;-89
2023/10/09 12:18:06;;;;;;;6.28;1.50;;;;;;;;;;5053536;28;20043;-87
2023/10/09 12:20:33;;;;;;;6.25;2.55;;;;;;;;;;5042179;28;20036;-87
2023/10/09 12:23:00;;;;;;;6.93;1.60;;;;;;;;;;5042565;28;20056;-87
2023/10/09 12:25:26;;;;;;;10.45;1.98;;;;;;;;;;5037607;28;20045;-87
2023/10/09 12:27:55;;;;;;;10.38;1.75;;;;;;;;;;5036302;28;20036;-87
2023/10/09 12:30:26;;;;;;;9.80;2.65;;;;;;;;;;5038946;28;20091;-87
2023/10/09 12:32:53;;;;;;;7.80;1.52;;;;;;;;;;5034974;28;20030;-88
2023/10/09 12:35:19;;;;;;;7.50;1.55;;;;;;;;;;5038908;28;20389;-88
2023/10/09 12:37:46;;;;;;;6.50;1.95;;;;;;;;;;5041036;28;20087;-88
2023/10/09 12:40:12;;;;;;;12.30;2.03;;;;;;;;;;5035444;28;20132;-88
2023/10/09 12:42:38;;;;;;;8.95;1.73;;;;;;;;;;5037078;28;20029;-88
2023/10/09 12:45:08;;;;;;;13.63;2.47;;;;;;;;;;5031231;28;20033;-87
2023/10/09 12:47:37;;;;;;;5.88;1.80;;;;;;;;;;5037398;28;20029;-88
2023/10/09 12:50:09;;;;;;;6.20;1.80;;;;;;;;;;5031059;28;20035;-88
2023/10/09 12:52:37;;;;;;;6.63;1.58;;;;;;;;;;5041460;28;20281;-88
2023/10/09 12:55:10;;;;;;;4.50;1.63;;;;;;;;;;5038198;28;20025;-88
2023/10/09 12:57:36;;;;;;;8.20;1.98;;;;;;;;;;5043058;28;20481;-88
2023/10/09 13:00:10;;;;;;;6.30;1.85;;;;;;;;;;5037513;28;20037;-88
2023/10/09 13:02:36;;;;;;;11.80;2.60;;;;;;;;;;5043174;28;20029;-89
2023/10/09 13:05:05;;;;;;;10.63;1.80;;;;;;;;;;5043938;28;20043;-87
2023/10/09 13:07:31;;;;;;;15.50;3.08;;;;;;;;;;5039491;28;20044;-85
2023/10/09 13:10:31;;;;;;;6.03;1.73;;;;;;;;;;5044913;28;20056;-88
2023/10/09 13:12:55;;;;;;;6.10;1.25;;;;;;;;;;5036037;28;20028;-88
2023/10/09 13:15:21;;;;;;;10.02;1.48;;;;;;;;;;5036027;28;20033;-88
2023/10/09 13:17:47;;;;;;;4.32;1.52;;;;;;;;;;5041371;28;20079;-88
2023/10/09 13:20:13;;;;;;;10.25;1.40;;;;;;;;;;5040518;28;20044;-87
2023/10/09 13:22:40;;;;;;;7.85;1.70;;;;;;;;;;5038373;28;20075;-87
2023/10/09 13:25:07;;;;;;;8.77;2.10;;;;;;;;;;5038570;28;20046;-87
2023/10/09 13:27:34;;;;;;;5.82;1.88;;;;;;;;;;5032506;28;20033;-87
2023/10/09 13:30:05;;;;;;;8.45;2.08;;;;;;;;;;5036028;28;20029;-88
2023/10/09 13:32:35;;;;;;;9.52;2.08;;;;;;;;;;5036813;28;20103;-87
2023/10/09 13:35:03;;;;;;;6.18;1.38;;;;;;;;;;5037746;28;20025;-87
2023/10/09 13:37:30;;;;;;;10.02;2.22;;;;;;;;;;5044504;28;20032;-87
2023/10/09 13:39:57;;;;;;;6.35;1.80;;;;;;;;;;5037327;28;20039;-87
2023/10/09 13:42:26;;;;;;;9.75;2.13;;;;;;;;;;5038069;28;20512;-86
2023/10/09 13:44:55;;;;;;;5.72;2.03;;;;;;;;;;5038275;28;20531;-88
2023/10/09 13:47:23;;;;;;;9.52;1.88;;;;;;;;;;5042697;28;20064;-87
2023/10/09 13:49:53;;;;;;;4.60;1.85;;;;;;;;;;5042183;28;20127;-87
2023/10/09 13:52:21;;;;;;;6.05;2.53;;;;;;;;;;5039020;28;20017;-87
2023/10/09 13:54:49;;;;;;;7.80;1.92;;;;;;;;;;5035834;28;20036;-87
2023/10/09 13:57:15;;;;;;;10.63;2.80;;;;;;;;;;5040343;28;20013;-87
2023/10/09 13:59:43;;;;;;;6.53;1.92;;;;;;;;;;5038716;28;20051;-87
2023/10/09 14:02:09;;;;;;;10.00;2.22;;;;;;;;;;5045229;28;20025;-87
2023/10/09 14:04:35;;;;;;;5.20;1.92;;;;;;;;;;5043078;28;20028;-88
2023/10/09 14:07:05;;;;;;;15.65;1.88;;;;;;;;;;5037213;28;20037;-87
2023/10/09 14:09:31;;;;;;;4.03;1.55;;;;;;;;;;5038691;28;20108;-88
2023/10/09 14:12:09;;;;;;;6.22;1.55;;;;;;;;;;5033650;28;20566;-87
2023/10/09 14:14:37;;;;;;;12.68;2.58;;;;;;;;;;5031180;28;20453;-87
2023/10/09 14:17:11;;;;;;;10.50;1.55;;;;;;;;;;5032423;28;20025;-88
2023/10/09 14:19:37;;;;;;;7.15;1.30;;;;;;;;;;5044356;28;20025;-87
2023/10/09 14:22:05;;;;;;;4.63;1.30;;;;;;;;;;5039087;28;20560;-87
2023/10/09 14:24:32;;;;;;;4.90;1.80;;;;;;;;;;5037511;28;20115;-86
2023/10/09 14:26:58;;;;;;;5.97;1.77;;;;;;;;;;5034919;28;20497;-87
2023/10/09 14:29:26;;;;;;;6.72;1.88;;;;;;;;;;5027712;28;20083;-87
2023/10/09 14:32:00;;;;;;;6.80;1.35;;;;;;;;;;5033144;28;20028;-84
2023/10/09 14:34:32;;;;;;;7.18;2.60;;;;;;;;;;5038714;28;20029;-86
2023/10/09 14:37:00;;;;;;;9.02;2.60;;;;;;;;;;5033755;28;20108;-87
2023/10/09 14:39:26;;;;;;;6.97;1.63;;;;;;;;;;5036825;28;20390;-88
2023/10/09 14:41:54;;;;;;;6.97;2.00;;;;;;;;;;5035506;28;20498;-88
2023/10/09 14:44:21;;;;;;;5.13;2.05;;;;;;;;;;5032955;28;20095;-87
2023/10/09 14:46:49;;;;;;;6.82;1.80;;;;;;;;;;5040548;28;20029;-88
2023/10/09 14:49:15;;;;;;;5.30;1.90;;;;;;;;;;5036119;28;20359;-87
2023/10/09 14:51:41;;;;;;;7.68;1.40;;;;;;;;;;5021894;28;20417;-89
2023/10/09 14:54:07;;;;;;;6.80;1.65;;;;;;;;;;5031569;28;20083;-88
2023/10/09 14:56:36;;;;;;;13.23;1.92;;;;;;;;;;5032516;28;20087;-90
2023/10/09 14:59:03;;;;;;;5.13;1.88;;;;;;;;;;5029181;28;20026;-87
2023/10/09 15:01:31;;;;;;;7.22;1.45;;;;;;;;;;5030881;28;20033;-88
2023/10/09 15:03:57;;;;;;;6.93;1.13;;;21.30;99.90;;;;;;5034399;28;20199;-87
2023/10/09 15:06:27;;;;;;;4.35;1.65;;;;;;;;;;5049546;28;20041;-89
2023/10/09 15:08:55;;;;;;;6.85;2.00;;;21.20;99.90;;;;;;5066033;28;20063;-88
2023/10/09 15:11:25;;;;;;;3.63;1.20;;;;;;;;;;5045358;28;20029;-88
2023/10/09 15:13:52;;;;;;;5.82;1.20;;;;;;;;;;5030245;28;20433;-88
2023/10/09 15:16:21;;;;;;;9.60;1.83;;;;;;;;;;5038608;28;20244;-88
2023/10/09 15:18:48;;;;;;;6.47;2.60;;;;;;;;;;5036456;28;20110;-87
2023/10/09 15:21:16;;;;;;;5.00;1.63;;;;;;;;;;5029610;28;20635;-87
2023/10/09 15:23:43;;;;;;;4.10;1.45;;;;;;;;;;5035362;28;20116;-88
2023/10/09 15:26:09;;;;;;;5.43;1.15;;;;;;;;;;5035476;28;20036;-88
2023/10/09 15:28:34;;;;;;;7.25;1.60;;;;;;;;;;5034046;28;20028;-88
2023/10/09 15:31:01;;;;;;;7.25;2.13;;;;;;;;;;5026301;28;20036;-87
2023/10/09 15:33:30;;;;;;;7.05;1.50;;;;;;;;;;5030066;28;20022;-87
2023/10/09 15:35:56;;;;;;;6.80;2.40;;;;;;;;;;5030720;28;20489;-89
2023/10/09 15:38:25;;;;;;;5.18;1.45;;;;;;;;;;5025910;28;20039;-89
2023/10/09 15:40:51;;;;;;;8.27;1.85;;;;;;;;;;5037351;28;20025;-89
2023/10/09 15:43:17;;;;;;;11.35;1.23;;;;;;;;;;5032459;28;20040;-90
2023/10/09 15:45:50;;;;;;;6.03;1.92;;;;;;;;;;5033364;28;20036;-89
2023/10/09 15:48:15;;;;;;;;;;;20.30;99.90;;;;;;5029925;28;20025;-89
2023/10/09 15:50:48;;;;;;;6.28;1.90;;;;;;;;;;5034051;28;19927;-89
2023/10/09 15:53:16;;;;;;;8.88;1.80;;;;;;;;;;5030007;28;20029;-89
2023/10/09 15:55:42;;;;;;;6.78;1.92;;;;;;;;;;5033081;28;20032;-89
2023/10/09 15:58:08;;;;;;;6.70;1.85;;;;;;;;;;5032506;28;20091;-88
2023/10/09 16:00:34;;;;;;;7.80;2.08;;;;;;;;;;5033694;28;20459;-89
2023/10/09 16:03:03;;;;;;;10.10;2.03;;;;;;;;;;5034962;28;20115;-88
2023/10/09 16:05:30;;;;;;;6.57;1.92;;;;;;;;;;5037791;28;20075;-88
2023/10/09 16:07:57;;;;;;;7.65;1.80;;;;;;;;;;5036020;28;20045;-88
2023/10/09 16:10:23;;;;;;;4.50;1.63;;;;;;;;;;5038947;28;20021;-88
2023/10/09 16:12:53;;;;;;;7.93;2.10;;;;;;;;;;5035477;28;20044;-89
2023/10/09 16:15:24;;;;;;;5.32;2.15;;;;;;;;;;5033178;28;20025;-88
2023/10/09 16:18:06;;;;;;;7.88;2.45;;;;;;;;;;5038888;28;20057;-88
2023/10/09 16:20:32;;;;;;;10.68;4.28;;;;;;;;;;5036002;28;20060;-88
2023/10/09 16:23:04;;;;;;;11.88;3.97;;;;;;;;;;5037048;28;20110;-89
2023/10/09 16:25:30;;;;;;;9.40;4.40;;;;;;;;;;5035064;28;20060;-88
2023/10/09 16:27:58;;;;;;;9.18;4.45;;;;;;;;;;5036405;28;20033;-89
2023/10/09 16:30:24;;;;;;;9.90;3.22;;;;;;;;;;5036172;28;20028;-87
2023/10/09 16:32:51;;;;;;;10.40;3.50;;;;;;;;;;5034375;28;20032;-90
2023/10/09 16:35:17;;;;;;;16.33;3.53;;;;;;;;;;5040088;28;20033;-88
2023/10/09 16:37:43;;;;;;;6.28;3.33;;;;;;;;;;5028644;28;20076;-88
2023/10/09 16:40:12;;;;;;;12.75;4.22;;;;;;;;;;5028521;28;20517;-88
2023/10/09 16:42:40;;;;;;;8.88;2.72;;;;;;;;;;5030785;28;20024;-89
2023/10/09 16:45:08;;;;;;;9.35;4.45;;;;;;;;;;5032708;28;20525;-88
2023/10/09 16:47:38;;;;;;;18.73;7.53;;;;;;;;;;5033220;28;20037;-88
2023/10/09 16:50:09;;;;;;;16.48;6.45;;;;;;;;;;5028024;28;20048;-88
2023/10/09 16:52:37;;;;;;;14.63;6.13;;;;;;;;;;5031439;28;20428;-88
2023/10/09 16:55:08;;;;;;;17.48;6.03;;;;;;;;;;5031280;28;20024;-88
2023/10/09 16:57:35;;;;;;;21.10;8.57;;;;;;;;;;5032700;28;20072;-88
2023/10/09 17:00:02;;;;;;;14.23;5.72;;;;;;;;;;5024624;28;20429;-87
2023/10/09 17:02:30;;;;;;;17.85;5.72;;;;;;;;;;5033199;28;20036;-87
2023/10/09 17:04:56;;;;;;;9.50;4.18;;;;;;;;;;5034065;28;20033;-87
2023/10/09 17:07:25;;;;;;;11.73;4.10;;;;;;;;;;5035810;28;20040;-87
2023/10/09 17:09:55;;;;;;;17.02;3.45;;;;;;;;;;5027828;28;20497;-88
2023/10/09 17:12:22;;;;;;;11.38;3.60;;;;;;;;;;5029182;28;20025;-89
2023/10/09 17:14:48;;;;;;;7.10;2.25;;;;;;;;;;5027596;28;20018;-89
2023/10/09 17:17:15;;;;;;;10.48;3.00;;;;;;;;;;5030303;28;20410;-88
2023/10/09 17:19:43;;;;;;;10.50;3.20;;;;;;;;;;5033934;28;20060;-88